DAOF

Tindouf Airport

Tindouf, Algeria
METAR DAOF 190700Z 26008KT CAVOK 07/06 Q1017
Observed Flight Rules
Jan-19 @ 07:00 UTC (28 minutes ago) Visual Flight Rules
Wind Visibility Clouds
260° at 8 knots 10,000+ meters
  • Clear skies
Temperatures Readings
Current 7°C / 45°F
Dewpoint 6°C / 43°F
Humidity 93%
Altimeter 30.03" Hg
Pressure 1017 hPa
Elevation 431
METAR DAOF 190700Z 26008KT CAVOK 07/06 Q1017
Observed Flight Rules
Jan-19 @ 07:00 UTC
(28 minutes ago)
VFR
Wind Visibility
260° at 8 knots 10,000+ meters
Clouds
  • Clear skies
Temperature Dewpoint
7°C / 45°F 6°C / 43°F
Humidity Altimeter Pressure
93% 30.03" Hg 1017 hPa